createdAt,value
2023-02-05T00:01:33.541Z,102438.16
2023-02-05T00:04:01.027Z,102439.69
2023-02-05T00:06:28.606Z,102441.06
2023-02-05T00:08:57.940Z,102437.81
2023-02-05T00:11:26.217Z,102437.22
2023-02-05T00:13:54.011Z,102441.47
2023-02-05T00:16:23.568Z,102444.38
2023-02-05T00:18:52.220Z,102440.38
2023-02-05T00:21:21.021Z,102440.78
2023-02-05T00:23:49.033Z,102439.94
2023-02-05T00:26:16.524Z,102442.66
2023-02-05T00:28:45.174Z,102433.41
2023-02-05T00:31:20.882Z,102441.97
2023-02-05T00:33:52.205Z,102439.63
2023-02-05T00:36:21.191Z,102441.00
2023-02-05T00:38:48.654Z,102441.59
2023-02-05T00:41:18.029Z,102451.06
2023-02-05T00:43:46.007Z,102446.41
2023-02-05T00:46:16.482Z,102446.81
2023-02-05T00:48:44.321Z,102447.31
2023-02-05T00:51:12.222Z,102453.56
2023-02-05T00:53:40.306Z,102449.38
2023-02-05T00:56:07.890Z,102450.59
2023-02-05T00:58:35.672Z,102452.72
2023-02-05T01:01:03.770Z,102449.28
2023-02-05T01:03:33.324Z,102452.41
2023-02-05T01:06:03.198Z,102457.88
2023-02-05T01:08:30.790Z,102456.16
2023-02-05T01:10:58.500Z,102460.41
2023-02-05T01:13:25.972Z,102466.81
2023-02-05T01:15:53.352Z,102478.25
2023-02-05T01:18:20.640Z,102462.06
2023-02-05T01:20:47.928Z,102468.75
2023-02-05T01:23:15.221Z,102471.69
2023-02-05T01:25:46.106Z,102480.13
2023-02-05T01:28:17.336Z,102474.16
2023-02-05T01:30:51.326Z,102473.03
2023-02-05T01:33:19.726Z,102474.22
2023-02-05T01:35:47.094Z,102479.78
2023-02-05T01:38:14.948Z,102477.31
2023-02-05T01:40:43.179Z,102463.00
2023-02-05T01:43:15.257Z,102469.97
2023-02-05T01:45:55.741Z,102467.34
2023-02-05T01:48:27.810Z,102467.34
2023-02-05T01:51:02.699Z,102473.06
2023-02-05T01:53:33.235Z,102468.47
2023-02-05T01:56:06.254Z,102470.16
2023-02-05T01:58:40.669Z,102475.47
2023-02-05T02:01:08.258Z,102467.91
2023-02-05T02:03:35.726Z,102470.69
2023-02-05T02:06:04.865Z,102468.00
2023-02-05T02:08:35.411Z,102467.16
2023-02-05T02:11:05.887Z,102473.03
2023-02-05T02:13:36.591Z,102472.22
2023-02-05T02:16:07.192Z,102469.13
2023-02-05T02:18:38.115Z,102472.34
2023-02-05T02:21:08.521Z,102465.66
2023-02-05T02:23:44.953Z,102470.25
2023-02-05T02:26:44.404Z,102473.00
2023-02-05T02:29:19.638Z,102468.47
2023-02-05T02:31:57.112Z,102473.84
2023-02-05T02:34:36.978Z,102474.97
2023-02-05T02:37:14.074Z,102472.59
2023-02-05T02:39:48.208Z,102475.63
2023-02-05T02:42:29.060Z,102482.34
2023-02-05T02:45:02.516Z,102474.47
2023-02-05T02:47:36.209Z,102475.78
2023-02-05T02:50:12.799Z,102474.00
2023-02-05T02:52:44.057Z,102479.88
2023-02-05T02:55:17.000Z,102479.97
2023-02-05T02:57:51.303Z,102479.59
2023-02-05T03:00:24.438Z,102477.06
2023-02-05T03:02:56.474Z,102485.97
2023-02-05T03:05:25.726Z,102489.16
2023-02-05T03:08:02.457Z,102494.22
2023-02-05T03:10:44.519Z,102491.16
2023-02-05T03:13:14.622Z,102490.34
2023-02-05T03:15:47.456Z,102502.31
2023-02-05T03:18:17.611Z,102491.75
2023-02-05T03:20:52.331Z,102490.25
2023-02-05T03:23:20.049Z,102487.31
2023-02-05T03:25:47.513Z,102487.53
2023-02-05T03:28:17.935Z,102484.28
2023-02-05T03:30:57.375Z,102484.84
2023-02-05T03:33:27.409Z,102488.75
2023-02-05T03:36:09.832Z,102485.44
2023-02-05T03:38:43.807Z,102487.56
2023-02-05T03:41:53.728Z,102490.94
2023-02-05T03:44:57.118Z,102498.00
2023-02-05T03:47:25.968Z,102493.91
2023-02-05T03:49:56.325Z,102490.16
2023-02-05T03:52:31.296Z,102488.28
2023-02-05T03:55:04.775Z,102487.22
2023-02-05T03:57:40.325Z,102496.00
2023-02-05T04:00:10.868Z,102488.63
2023-02-05T04:02:46.616Z,102484.91
2023-02-05T04:05:22.957Z,102493.56
2023-02-05T04:07:52.444Z,102492.28
2023-02-05T04:10:22.634Z,102493.59
2023-02-05T04:12:51.117Z,102492.41
2023-02-05T04:15:19.176Z,102489.72
2023-02-05T04:17:50.569Z,102484.44
2023-02-05T04:20:18.532Z,102487.72
2023-02-05T04:22:45.861Z,102485.03
2023-02-05T04:25:13.706Z,102495.91
2023-02-05T04:27:41.341Z,102492.41
2023-02-05T04:30:10.170Z,102499.31
2023-02-05T04:32:41.667Z,102492.75
2023-02-05T04:35:09.676Z,102492.53
2023-02-05T04:37:37.293Z,102492.75
2023-02-05T04:40:05.325Z,102499.44
2023-02-05T04:42:32.748Z,102492.06
2023-02-05T04:45:00.292Z,102491.94
2023-02-05T04:47:27.718Z,102499.44
2023-02-05T04:49:54.977Z,102492.88
2023-02-05T04:52:22.300Z,102500.84
2023-02-05T04:54:49.613Z,102501.19
2023-02-05T04:57:17.030Z,102495.09
2023-02-05T04:59:44.374Z,102498.03
2023-02-05T05:02:11.748Z,102498.50
2023-02-05T05:04:41.083Z,102496.38
2023-02-05T05:07:10.303Z,102499.06
2023-02-05T05:09:37.858Z,102498.13
2023-02-05T05:12:05.748Z,102494.50
2023-02-05T05:14:33.056Z,102492.88
2023-02-05T05:17:00.475Z,102495.13
2023-02-05T05:19:27.770Z,102498.03
2023-02-05T05:21:55.078Z,102500.84
2023-02-05T05:24:22.362Z,102510.06
2023-02-05T05:26:49.728Z,102506.81
2023-02-05T05:29:17.248Z,102511.50
2023-02-05T05:31:44.602Z,102515.81
2023-02-05T05:34:12.069Z,102517.81
2023-02-05T05:36:43.535Z,102521.59
2023-02-05T05:39:29.633Z,102513.38
2023-02-05T05:42:15.232Z,102521.69
2023-02-05T05:44:42.559Z,102519.59
2023-02-05T05:47:09.935Z,102518.06
2023-02-05T05:49:37.268Z,102522.28
2023-02-05T05:52:04.904Z,102515.47
2023-02-05T05:54:32.227Z,102518.53
2023-02-05T05:56:59.591Z,102525.53
2023-02-05T05:59:26.910Z,102516.75
2023-02-05T06:01:57.510Z,102511.81
2023-02-05T06:04:24.998Z,102502.44
2023-02-05T06:06:52.418Z,102504.81
2023-02-05T06:09:23.961Z,102498.59
2023-02-05T06:11:51.506Z,102506.94
2023-02-05T06:14:20.891Z,102513.34
2023-02-05T06:16:48.227Z,102514.88
2023-02-05T06:19:15.513Z,102514.88
2023-02-05T06:21:42.842Z,102513.69
2023-02-05T06:24:10.272Z,102507.84
2023-02-05T06:26:37.599Z,102512.63
2023-02-05T06:29:04.950Z,102515.91
2023-02-05T06:31:32.442Z,102526.78
2023-02-05T06:34:02.831Z,102524.78
2023-02-05T06:36:30.228Z,102524.22
2023-02-05T06:38:57.537Z,102526.22
2023-02-05T06:41:25.172Z,102531.13
2023-02-05T06:43:52.537Z,102535.94
2023-02-05T06:46:19.862Z,102537.59
2023-02-05T06:48:47.232Z,102540.56
2023-02-05T06:51:14.587Z,102547.72
2023-02-05T06:53:41.980Z,102554.63
2023-02-05T06:56:09.308Z,102553.09
2023-02-05T06:58:36.656Z,102558.16
2023-02-05T07:01:04.973Z,102553.56
2023-02-05T07:03:32.357Z,102555.56
2023-02-05T07:06:04.799Z,102561.78
2023-02-05T07:08:32.489Z,102572.06
2023-02-05T07:10:59.956Z,102558.91
2023-02-05T07:13:31.837Z,102560.38
2023-02-05T07:16:02.406Z,102551.69
2023-02-05T07:18:29.725Z,102550.59
2023-02-05T07:20:57.031Z,102554.84
2023-02-05T07:23:24.572Z,102561.84
2023-02-05T07:25:51.942Z,102573.88
2023-02-05T07:28:21.936Z,102576.69
2023-02-05T07:30:50.050Z,102587.69
2023-02-05T07:33:17.686Z,102583.50
2023-02-05T07:35:47.722Z,102576.63
2023-02-05T07:38:15.135Z,102576.03
2023-02-05T07:40:42.427Z,102576.09
2023-02-05T07:43:09.731Z,102582.50
2023-02-05T07:45:37.264Z,102586.28
2023-02-05T07:48:04.764Z,102580.81
2023-02-05T07:50:32.261Z,102587.59
2023-02-05T07:52:59.708Z,102592.16
2023-02-05T07:55:27.349Z,102595.09
2023-02-05T07:57:54.695Z,102593.66
2023-02-05T08:00:22.046Z,102591.56
2023-02-05T08:02:49.312Z,102591.75
2023-02-05T08:05:16.759Z,102601.59
2023-02-05T08:07:44.153Z,102601.25
2023-02-05T08:10:15.574Z,102598.94
2023-02-05T08:12:42.957Z,102605.09
2023-02-05T08:15:11.186Z,102607.97
2023-02-05T08:17:38.643Z,102614.03
2023-02-05T08:20:09.509Z,102613.69
2023-02-05T08:22:39.365Z,102609.13
2023-02-05T08:25:09.337Z,102601.59
2023-02-05T08:27:37.947Z,102604.81
2023-02-05T08:30:09.291Z,102615.13
2023-02-05T08:32:36.747Z,102624.34
2023-02-05T08:35:04.510Z,102625.44
2023-02-05T08:37:31.859Z,102622.66
2023-02-05T08:39:59.200Z,102612.00
2023-02-05T08:42:26.608Z,102608.59
2023-02-05T08:44:56.059Z,102612.56
2023-02-05T08:47:26.133Z,102611.75
2023-02-05T08:49:53.913Z,102611.41
2023-02-05T08:52:21.308Z,102613.25
2023-02-05T08:54:49.370Z,102616.19
2023-02-05T08:57:16.730Z,102606.03
2023-02-05T08:59:44.158Z,102608.22
2023-02-05T09:02:17.430Z,102620.81
2023-02-05T09:04:44.834Z,102624.97
2023-02-05T09:07:14.952Z,102630.56
2023-02-05T09:09:42.421Z,102625.47
2023-02-05T09:12:10.811Z,102635.53
2023-02-05T09:14:39.177Z,102635.53
2023-02-05T09:17:09.148Z,102624.34
2023-02-05T09:19:38.595Z,102633.50
2023-02-05T09:22:07.891Z,102637.81
2023-02-05T09:24:37.804Z,102635.53
2023-02-05T09:27:06.688Z,102631.09
2023-02-05T09:29:34.121Z,102642.78
2023-02-05T09:32:01.570Z,102637.75
2023-02-05T09:34:28.873Z,102634.63
2023-02-05T09:36:56.242Z,102635.53
2023-02-05T09:40:01.926Z,102635.94
2023-02-05T09:42:18.973Z,102646.91
2023-02-05T09:45:07.759Z,102648.84
2023-02-05T09:47:45.769Z,102643.47
2023-02-05T09:50:31.447Z,102645.28
2023-02-05T09:53:06.379Z,102646.13
2023-02-05T09:55:38.783Z,102650.97
2023-02-05T09:58:11.436Z,102655.81
2023-02-05T10:00:52.464Z,102658.44
2023-02-05T10:03:34.222Z,102646.97
2023-02-05T10:06:10.997Z,102651.63
2023-02-05T10:08:48.300Z,102655.81
2023-02-05T10:11:41.855Z,102651.69
2023-02-05T10:14:43.194Z,102653.50
2023-02-05T10:17:24.670Z,102660.03
2023-02-05T10:20:13.167Z,102659.50
2023-02-05T10:22:54.191Z,102656.38
2023-02-05T10:25:45.434Z,102650.41
2023-02-05T10:28:34.189Z,102638.22
2023-02-05T10:31:23.716Z,102643.59
2023-02-05T10:33:56.083Z,102647.59
2023-02-05T10:36:25.978Z,102661.66
2023-02-05T10:38:56.380Z,102661.78
2023-02-05T10:41:30.179Z,102661.00
2023-02-05T10:44:12.306Z,102660.47
2023-02-05T10:46:40.260Z,102668.88
2023-02-05T10:49:18.722Z,102661.72
2023-02-05T10:51:46.407Z,102651.97
2023-02-05T10:54:33.777Z,102646.47
2023-02-05T10:57:03.320Z,102632.09
2023-02-05T10:59:34.083Z,102627.03
2023-02-05T11:02:07.314Z,102635.06
2023-02-05T11:04:47.026Z,102626.00
2023-02-05T11:07:33.913Z,102617.44
2023-02-05T11:10:21.257Z,102627.56
2023-02-05T11:13:10.275Z,102616.59
2023-02-05T11:15:52.799Z,102610.56
2023-02-05T11:18:27.797Z,102603.41
2023-02-05T11:21:01.600Z,102609.00
2023-02-05T11:23:32.185Z,102603.09
2023-02-05T11:26:09.232Z,102604.00
2023-02-05T11:28:42.228Z,102607.19
2023-02-05T11:31:28.898Z,102608.88
2023-02-05T11:34:08.166Z,102610.06
2023-02-05T11:36:49.811Z,102605.56
2023-02-05T11:39:29.952Z,102595.34
2023-02-05T11:41:58.655Z,102602.56
2023-02-05T11:44:30.257Z,102577.22
2023-02-05T11:46:59.772Z,102578.78
2023-02-05T11:49:34.770Z,102580.16
2023-02-05T11:52:09.615Z,102571.34
2023-02-05T11:54:41.577Z,102575.88
2023-02-05T11:57:17.793Z,102577.00
2023-02-05T12:00:16.386Z,102568.97
2023-02-05T12:02:44.456Z,102562.28
2023-02-05T12:05:31.434Z,102555.19
2023-02-05T12:08:08.219Z,102543.28
2023-02-05T12:10:52.829Z,102538.31
2023-02-05T12:13:58.534Z,102535.00
2023-02-05T12:16:46.409Z,102534.88
2023-02-05T12:19:44.131Z,102521.81
2023-02-05T12:22:20.287Z,102517.09
2023-02-05T12:24:53.600Z,102506.63
2023-02-05T12:27:39.647Z,102501.81
2023-02-05T12:30:40.790Z,102496.53
2023-02-05T12:33:28.598Z,102492.28
2023-02-05T12:36:11.248Z,102488.59
2023-02-05T12:39:05.256Z,102487.41
2023-02-05T12:41:54.159Z,102491.38
2023-02-05T12:44:51.808Z,102498.31
2023-02-05T12:47:55.172Z,102492.13
2023-02-05T12:50:36.018Z,102491.56
2023-02-05T12:53:30.516Z,102500.75
2023-02-05T12:56:06.945Z,102489.41
2023-02-05T12:58:48.952Z,102491.22
2023-02-05T13:01:33.625Z,102479.91
2023-02-05T13:04:02.626Z,102477.91
2023-02-05T13:06:47.254Z,102476.81
2023-02-05T13:09:46.770Z,102483.97
2023-02-05T13:12:20.048Z,102484.78
2023-02-05T13:15:05.944Z,102483.59
2023-02-05T13:17:40.569Z,102486.59
2023-02-05T13:20:19.696Z,102486.69
2023-02-05T13:23:16.137Z,102479.00
2023-02-05T13:26:06.761Z,102482.09
2023-02-05T13:28:47.676Z,102480.19
2023-02-05T13:31:28.469Z,102468.31
2023-02-05T13:34:03.037Z,102470.56
2023-02-05T13:36:56.532Z,102473.56
2023-02-05T13:39:50.783Z,102474.63
2023-02-05T13:42:20.877Z,102478.91
2023-02-05T13:45:22.203Z,102466.69
2023-02-05T13:47:56.649Z,102466.59
2023-02-05T13:50:42.921Z,102464.25
2023-02-05T13:53:41.375Z,102458.13
2023-02-05T13:56:17.289Z,102464.84
2023-02-05T13:59:11.028Z,102460.19
2023-02-05T14:01:44.818Z,102466.13
2023-02-05T14:04:37.162Z,102475.69
2023-02-05T14:07:06.845Z,102488.56
2023-02-05T14:10:06.654Z,102484.63
2023-02-05T14:12:36.366Z,102470.34
2023-02-05T14:15:16.213Z,102462.72
2023-02-05T14:17:43.513Z,102456.19
2023-02-05T14:20:25.986Z,102455.13
2023-02-05T14:22:58.007Z,102453.50
2023-02-05T14:25:43.308Z,102451.97
2023-02-05T14:28:16.487Z,102459.97
2023-02-05T14:30:48.326Z,102473.09
2023-02-05T14:33:32.208Z,102467.31
2023-02-05T14:36:18.323Z,102465.97
2023-02-05T14:38:54.192Z,102466.25
2023-02-05T14:41:40.162Z,102473.25
2023-02-05T14:44:13.586Z,102475.75
2023-02-05T14:46:54.736Z,102482.81
2023-02-05T14:49:29.098Z,102475.78
2023-02-05T14:52:24.334Z,102481.63
2023-02-05T14:55:01.059Z,102472.69
2023-02-05T14:57:51.936Z,102478.28
2023-02-05T15:00:34.360Z,102483.19
2023-02-05T15:03:04.865Z,102481.16
2023-02-05T15:05:42.381Z,102490.28
2023-02-05T15:08:33.900Z,102481.81
2023-02-05T15:11:41.141Z,102483.22
2023-02-05T15:14:33.110Z,102481.44
2023-02-05T15:17:06.611Z,102480.69
2023-02-05T15:19:40.694Z,102485.78
2023-02-05T15:22:31.058Z,102494.41
2023-02-05T15:25:00.051Z,102488.78
2023-02-05T15:27:44.896Z,102487.63
2023-02-05T15:30:19.923Z,102481.19
2023-02-05T15:32:53.001Z,102477.41
2023-02-05T15:35:24.546Z,102477.75
2023-02-05T15:37:58.550Z,102479.56
2023-02-05T15:40:40.395Z,102475.19
2023-02-05T15:43:17.924Z,102467.59
2023-02-05T15:45:46.266Z,102471.00
2023-02-05T15:48:17.977Z,102472.31
2023-02-05T15:50:58.719Z,102470.75
2023-02-05T15:53:36.828Z,102467.50
2023-02-05T15:56:12.968Z,102466.69
2023-02-05T15:58:50.564Z,102466.63
2023-02-05T16:01:28.297Z,102475.81
2023-02-05T16:03:55.880Z,102480.22
2023-02-05T16:06:25.940Z,102475.31
2023-02-05T16:08:53.688Z,102477.50
2023-02-05T16:11:32.319Z,102478.91
2023-02-05T16:14:20.320Z,102486.69
2023-02-05T16:17:14.947Z,102482.50
2023-02-05T16:19:42.183Z,102483.22
2023-02-05T16:22:34.272Z,102488.53
2023-02-05T16:25:07.524Z,102491.94
2023-02-05T16:27:40.816Z,102490.06
2023-02-05T16:30:18.142Z,102498.34
2023-02-05T16:32:47.012Z,102498.09
2023-02-05T16:35:24.532Z,102505.88
2023-02-05T16:37:52.222Z,102513.97
2023-02-05T16:40:38.720Z,102521.53
2023-02-05T16:43:38.008Z,102543.88
2023-02-05T16:46:08.091Z,102535.78
2023-02-05T16:48:48.521Z,102529.63
2023-02-05T16:51:40.570Z,102537.50
2023-02-05T16:54:10.305Z,102532.75
2023-02-05T16:57:14.425Z,102536.03
2023-02-05T17:00:04.276Z,102542.09
2023-02-05T17:02:41.035Z,102540.00
2023-02-05T17:05:47.589Z,102540.78
2023-02-05T17:08:15.013Z,102552.38
2023-02-05T17:10:51.303Z,102549.56
2023-02-05T17:13:29.413Z,102538.69
2023-02-05T17:15:56.896Z,102545.09
2023-02-05T17:18:25.933Z,102538.28
2023-02-05T17:21:19.949Z,102547.06
2023-02-05T17:23:51.890Z,102557.53
2023-02-05T17:26:19.250Z,102556.59
2023-02-05T17:28:51.977Z,102561.53
2023-02-05T17:31:22.538Z,102562.59
2023-02-05T17:33:51.324Z,102572.16
2023-02-05T17:36:19.229Z,102565.31
2023-02-05T17:38:48.722Z,102579.72
2023-02-05T17:41:38.495Z,102588.81
2023-02-05T17:44:06.161Z,102587.63
2023-02-05T17:46:33.472Z,102591.34
2023-02-05T17:49:00.788Z,102589.16
2023-02-05T17:51:29.020Z,102594.03
2023-02-05T17:53:56.537Z,102593.44
2023-02-05T17:56:24.337Z,102590.34
2023-02-05T17:58:53.940Z,102589.84
2023-02-05T18:01:22.219Z,102588.47
2023-02-05T18:03:49.664Z,102588.97
2023-02-05T18:06:18.432Z,102593.53
2023-02-05T18:08:45.737Z,102589.03
2023-02-05T18:11:13.217Z,102595.06
2023-02-05T18:13:40.536Z,102603.66
2023-02-05T18:16:08.140Z,102594.34
2023-02-05T18:18:37.909Z,102593.34
2023-02-05T18:21:08.071Z,102601.06
2023-02-05T18:23:35.632Z,102597.75
2023-02-05T18:26:06.042Z,102600.97
2023-02-05T18:28:35.183Z,102599.28
2023-02-05T18:31:08.157Z,102599.25
2023-02-05T18:33:36.801Z,102598.94
2023-02-05T18:36:09.877Z,102601.47
2023-02-05T18:38:38.098Z,102604.06
2023-02-05T18:41:13.564Z,102606.69
2023-02-05T18:43:43.506Z,102615.94
2023-02-05T18:46:16.333Z,102620.88
2023-02-05T18:48:45.708Z,102606.84
2023-02-05T18:51:14.935Z,102610.59
2023-02-05T18:53:43.517Z,102605.34
2023-02-05T18:56:16.831Z,102607.97
2023-02-05T18:58:49.725Z,102613.69
2023-02-05T19:01:22.276Z,102610.66
2023-02-05T19:03:52.728Z,102620.00
2023-02-05T19:06:21.705Z,102626.22
2023-02-05T19:08:49.773Z,102622.66
2023-02-05T19:11:20.740Z,102628.69
2023-02-05T19:13:54.163Z,102637.47
2023-02-05T19:16:21.570Z,102644.91
2023-02-05T19:18:49.504Z,102637.75
2023-02-05T19:21:18.837Z,102646.06
2023-02-05T19:23:50.209Z,102657.69
2023-02-05T19:26:19.627Z,102651.47
2023-02-05T19:28:53.308Z,102655.19
2023-02-05T19:31:20.767Z,102649.22
2023-02-05T19:33:48.824Z,102651.38
2023-02-05T19:36:16.268Z,102645.38
2023-02-05T19:38:43.669Z,102651.38
2023-02-05T19:41:13.780Z,102651.16
2023-02-05T19:43:52.406Z,102646.59
2023-02-05T19:46:25.652Z,102648.88
2023-02-05T19:48:54.732Z,102644.09
2023-02-05T19:51:22.409Z,102647.88
2023-02-05T19:53:49.859Z,102659.84
2023-02-05T19:56:22.011Z,102657.59
2023-02-05T19:58:51.972Z,102651.72
2023-02-05T20:01:32.873Z,102656.66
2023-02-05T20:04:22.348Z,102650.19
2023-02-05T20:06:52.447Z,102653.88
2023-02-05T20:09:20.173Z,102657.38
2023-02-05T20:11:49.852Z,102668.09
2023-02-05T20:14:18.364Z,102661.84
2023-02-05T20:16:46.298Z,102663.16
2023-02-05T20:19:17.351Z,102668.41
2023-02-05T20:21:45.786Z,102669.47
2023-02-05T20:24:13.558Z,102668.41
2023-02-05T20:26:41.019Z,102664.06
2023-02-05T20:29:28.883Z,102670.78
2023-02-05T20:31:57.632Z,102673.13
2023-02-05T20:34:26.810Z,102673.59
2023-02-05T20:36:57.168Z,102672.53
2023-02-05T20:39:28.716Z,102670.53
2023-02-05T20:41:58.345Z,102678.16
2023-02-05T20:44:32.113Z,102678.06
2023-02-05T20:46:59.668Z,102687.31
2023-02-05T20:49:27.018Z,102680.03
2023-02-05T20:51:54.831Z,102690.81
2023-02-05T20:54:23.022Z,102692.50
2023-02-05T20:56:51.654Z,102693.88
2023-02-05T20:59:19.066Z,102693.06
2023-02-05T21:01:46.585Z,102695.75
2023-02-05T21:04:14.063Z,102701.16
2023-02-05T21:06:41.514Z,102693.66
2023-02-05T21:09:09.951Z,102692.97
2023-02-05T21:11:38.100Z,102689.22
2023-02-05T21:14:06.592Z,102691.66
2023-02-05T21:16:35.628Z,102688.41
2023-02-05T21:19:05.854Z,102690.59
2023-02-05T21:21:35.471Z,102691.91
2023-02-05T21:24:06.637Z,102697.56
2023-02-05T21:26:38.582Z,102700.84
2023-02-05T21:29:07.423Z,102704.84
2023-02-05T21:31:44.562Z,102688.41
2023-02-05T21:34:14.889Z,102692.50
2023-02-05T21:36:42.331Z,102702.25
2023-02-05T21:39:12.111Z,102707.75
2023-02-05T21:41:39.716Z,102710.00
2023-02-05T21:44:07.041Z,102716.69
2023-02-05T21:46:34.628Z,102718.19
2023-02-05T21:49:02.212Z,102730.28
2023-02-05T21:51:34.565Z,102724.69
2023-02-05T21:54:06.214Z,102726.56
2023-02-05T21:56:43.574Z,102731.09
2023-02-05T21:59:12.073Z,102725.25
2023-02-05T22:01:39.960Z,102728.91
2023-02-05T22:04:11.163Z,102727.47
2023-02-05T22:06:39.079Z,102719.06
2023-02-05T22:09:11.289Z,102730.44
2023-02-05T22:11:39.514Z,102736.41
2023-02-05T22:14:07.232Z,102732.66
2023-02-05T22:16:36.117Z,102732.06
2023-02-05T22:19:04.848Z,102741.94
2023-02-05T22:21:35.856Z,102748.88
2023-02-05T22:24:05.289Z,102740.75
2023-02-05T22:26:36.302Z,102742.75
2023-02-05T22:29:06.352Z,102747.44
2023-02-05T22:31:34.608Z,102743.09
2023-02-05T22:34:02.386Z,102744.63
2023-02-05T22:36:32.121Z,102751.44
2023-02-05T22:38:59.813Z,102752.84
2023-02-05T22:41:32.739Z,102760.94
2023-02-05T22:44:01.744Z,102756.38
2023-02-05T22:46:33.636Z,102759.44
2023-02-05T22:49:01.840Z,102766.56
2023-02-05T22:51:38.052Z,102763.75
2023-02-05T22:54:06.140Z,102772.22
2023-02-05T22:56:33.877Z,102765.63
2023-02-05T22:59:03.308Z,102772.81
2023-02-05T23:01:33.810Z,102764.22
2023-02-05T23:04:02.799Z,102775.25
2023-02-05T23:06:35.571Z,102774.78
2023-02-05T23:09:05.810Z,102770.81
2023-02-05T23:11:33.955Z,102779.72
2023-02-05T23:14:02.984Z,102778.22
2023-02-05T23:16:33.862Z,102786.06
2023-02-05T23:19:06.201Z,102781.13
2023-02-05T23:21:35.660Z,102783.25
2023-02-05T23:24:04.258Z,102785.69
2023-02-05T23:26:35.055Z,102790.53
2023-02-05T23:29:02.367Z,102785.34
2023-02-05T23:31:30.140Z,102796.88
2023-02-05T23:33:57.824Z,102797.66
2023-02-05T23:36:25.199Z,102796.00
2023-02-05T23:38:52.551Z,102793.31
2023-02-05T23:41:39.784Z,102789.47
2023-02-05T23:44:20.269Z,102787.59
2023-02-05T23:46:49.290Z,102780.31
2023-02-05T23:49:17.965Z,102789.22
2023-02-05T23:51:45.310Z,102794.38
2023-02-05T23:54:12.701Z,102788.16
2023-02-05T23:56:40.757Z,102781.38
2023-02-05T23:59:10.318Z,102788.53
